JST8992 WADD-VHHH
Flight info
| Callsign | JST8992 |
|---|---|
| Flight time | 4h 20m |
| Altitude | 38000 |
| Route | DOBMA M522 ELANG/N0464F390 R223 BRU/N0466F380 L649 DAKIX/N0463F390 L649 LAXOR/N0465F380 M772 ASOBA/N0461F390 M772 DULOP Q1 CARSO/N0464F380 V551 CYBER/N0460F390 V551 BETTY |
| Aircraft | A320/M-SDE3FGHIRWY/LB1 |
Departure
| Time | 2026-04-30 10:13 |
|---|---|
| Airport | Denpasar I Gusti Ngurah Rai International Airport (WADD) |
Arrival
| Time | 2026-04-30 14:33 |
|---|---|
| Airport | Hong Kong International Airport (VHHH) |
| Time | Latitude | Longitude | Altitude | Speed | Heading |
|---|---|---|---|---|---|
| 2026-04-30 09:56 | -8.74579 | 115.15900 | 34 ft | 0 kts | 268° |
| 2026-04-30 10:04 | -8.74579 | 115.15907 | 33 ft | 2 kts | 268° |
| 2026-04-30 10:05 | -8.74578 | 115.15928 | 33 ft | 3 kts | 268° |
| 2026-04-30 10:05 | -8.74578 | 115.15948 | 33 ft | 3 kts | 268° |
| 2026-04-30 10:05 | -8.74576 | 115.15968 | 33 ft | 3 kts | 256° |
| 2026-04-30 10:05 | -8.74569 | 115.15986 | 32 ft | 3 kts | 226° |
| 2026-04-30 10:06 | -8.74555 | 115.15996 | 33 ft | 3 kts | 186° |
| 2026-04-30 10:06 | -8.74544 | 115.15996 | 33 ft | 2 kts | 178° |
| 2026-04-30 10:06 | -8.74531 | 115.15996 | 32 ft | 1 kts | 178° |
| 2026-04-30 10:06 | -8.74530 | 115.15996 | 32 ft | 0 kts | 178° |
| 2026-04-30 10:09 | -8.74541 | 115.15996 | 33 ft | 3 kts | 178° |
| 2026-04-30 10:10 | -8.74570 | 115.15998 | 33 ft | 5 kts | 178° |
| 2026-04-30 10:10 | -8.74617 | 115.15999 | 33 ft | 9 kts | 178° |
| 2026-04-30 10:10 | -8.74688 | 115.15991 | 32 ft | 12 kts | 211° |
| 2026-04-30 10:10 | -8.74714 | 115.15906 | 33 ft | 15 kts | 265° |
| 2026-04-30 10:11 | -8.74717 | 115.15794 | 33 ft | 17 kts | 270° |
| 2026-04-30 10:11 | -8.74723 | 115.15663 | 33 ft | 20 kts | 268° |
| 2026-04-30 10:11 | -8.74729 | 115.15522 | 32 ft | 20 kts | 268° |
| 2026-04-30 10:11 | -8.74761 | 115.15399 | 32 ft | 18 kts | 217° |
| 2026-04-30 10:12 | -8.74868 | 115.15398 | 28 ft | 17 kts | 165° |
| 2026-04-30 10:12 | -8.74895 | 115.15482 | 29 ft | 12 kts | 85° |
| 2026-04-30 10:12 | -8.74883 | 115.15747 | 28 ft | 75 kts | 88° |
| 2026-04-30 10:12 | -8.74853 | 115.16496 | 29 ft | 135 kts | 88° |
| 2026-04-30 10:13 | -8.74803 | 115.17583 | 301 ft | 161 kts | 89° |
| 2026-04-30 10:13 | -8.74757 | 115.18695 | 1100 ft | 156 kts | 89° |
| 2026-04-30 10:13 | -8.74727 | 115.19793 | 1869 ft | 158 kts | 90° |
| 2026-04-30 10:13 | -8.74684 | 115.20966 | 2301 ft | 178 kts | 89° |
| 2026-04-30 10:14 | -8.74630 | 115.22292 | 2614 ft | 201 kts | 89° |
| 2026-04-30 10:14 | -8.74568 | 115.23791 | 2989 ft | 226 kts | 88° |
| 2026-04-30 10:14 | -8.74419 | 115.27280 | 4189 ft | 264 kts | 87° |
| 2026-04-30 10:15 | -8.74340 | 115.29153 | 5124 ft | 269 kts | 87° |
| 2026-04-30 10:15 | -8.74261 | 115.31055 | 6098 ft | 273 kts | 87° |
| 2026-04-30 10:15 | -8.74180 | 115.32981 | 6998 ft | 277 kts | 87° |
| 2026-04-30 10:15 | -8.74100 | 115.34934 | 7910 ft | 279 kts | 88° |
| 2026-04-30 10:16 | -8.74020 | 115.36910 | 8664 ft | 284 kts | 88° |
| 2026-04-30 10:16 | -8.73938 | 115.38916 | 8926 ft | 286 kts | 88° |
| 2026-04-30 10:16 | -8.73854 | 115.40930 | 9068 ft | 288 kts | 88° |
| 2026-04-30 10:17 | -8.73683 | 115.45040 | 10404 ft | 307 kts | 88° |
| 2026-04-30 10:17 | -8.72889 | 115.49564 | 10768 ft | 353 kts | 71° |
| 2026-04-30 10:17 | -8.71831 | 115.51893 | 10894 ft | 376 kts | 60° |
| 2026-04-30 10:18 | -8.70278 | 115.54099 | 11025 ft | 395 kts | 50° |
| 2026-04-30 10:18 | -8.68319 | 115.56099 | 11430 ft | 404 kts | 45° |
| 2026-04-30 10:18 | -8.66307 | 115.58100 | 12000 ft | 408 kts | 46° |
| 2026-04-30 10:19 | -8.62251 | 115.62178 | 13181 ft | 414 kts | 46° |
| 2026-04-30 10:19 | -8.60208 | 115.64241 | 13762 ft | 417 kts | 46° |
| 2026-04-30 10:19 | -8.57987 | 115.66153 | 14222 ft | 423 kts | 36° |
| 2026-04-30 10:19 | -8.55399 | 115.67604 | 14700 ft | 428 kts | 24° |
| 2026-04-30 10:20 | -8.52547 | 115.68507 | 15174 ft | 433 kts | 13° |
| 2026-04-30 10:20 | -8.46469 | 115.68543 | 16098 ft | 443 kts | 354° |
| 2026-04-30 10:20 | -8.43395 | 115.68183 | 16560 ft | 446 kts | 355° |
| 2026-04-30 10:21 | -8.40299 | 115.67910 | 17023 ft | 448 kts | 357° |
| 2026-04-30 10:21 | -8.37178 | 115.67715 | 17478 ft | 451 kts | 359° |
| 2026-04-30 10:21 | -8.34031 | 115.67566 | 17920 ft | 454 kts | 359° |
| 2026-04-30 10:21 | -8.30910 | 115.67433 | 18322 ft | 456 kts | 359° |
| 2026-04-30 10:22 | -8.27729 | 115.67285 | 18695 ft | 459 kts | 359° |
| 2026-04-30 10:22 | -8.24531 | 115.67116 | 19061 ft | 462 kts | 358° |
| 2026-04-30 10:22 | -8.21318 | 115.66928 | 19432 ft | 464 kts | 358° |
| 2026-04-30 10:22 | -8.18083 | 115.66729 | 19805 ft | 467 kts | 358° |
| 2026-04-30 10:23 | -8.14838 | 115.66524 | 20170 ft | 469 kts | 358° |
| 2026-04-30 10:23 | -8.11571 | 115.66315 | 20536 ft | 471 kts | 358° |
| 2026-04-30 10:23 | -8.08289 | 115.66107 | 20884 ft | 474 kts | 358° |
| 2026-04-30 10:23 | -8.04989 | 115.65903 | 21215 ft | 476 kts | 358° |
| 2026-04-30 10:24 | -8.01677 | 115.65704 | 21526 ft | 478 kts | 358° |
| 2026-04-30 10:24 | -7.98351 | 115.65508 | 21813 ft | 480 kts | 358° |
| 2026-04-30 10:24 | -7.95011 | 115.65310 | 22090 ft | 482 kts | 358° |
| 2026-04-30 10:24 | -7.91657 | 115.65110 | 22354 ft | 484 kts | 357° |
| 2026-04-30 10:25 | -7.88335 | 115.64526 | 22591 ft | 488 kts | 344° |
| 2026-04-30 10:25 | -7.85220 | 115.63154 | 22845 ft | 491 kts | 333° |
| 2026-04-30 10:25 | -7.82196 | 115.61539 | 23139 ft | 492 kts | 333° |
| 2026-04-30 10:25 | -7.79166 | 115.59908 | 23420 ft | 494 kts | 333° |
| 2026-04-30 10:26 | -7.76131 | 115.58269 | 23650 ft | 496 kts | 333° |
| 2026-04-30 10:26 | -7.73085 | 115.56621 | 23871 ft | 498 kts | 333° |
| 2026-04-30 10:26 | -7.70021 | 115.54965 | 24099 ft | 500 kts | 333° |
| 2026-04-30 10:26 | -7.66939 | 115.53305 | 24319 ft | 502 kts | 333° |
| 2026-04-30 10:27 | -7.63847 | 115.51645 | 24550 ft | 504 kts | 333° |
| 2026-04-30 10:27 | -7.60752 | 115.49988 | 24845 ft | 504 kts | 333° |
| 2026-04-30 10:27 | -7.57655 | 115.48328 | 25192 ft | 503 kts | 333° |
| 2026-04-30 10:27 | -7.54607 | 115.46695 | 25521 ft | 503 kts | 333° |
| 2026-04-30 10:28 | -7.51479 | 115.45018 | 25907 ft | 501 kts | 333° |
| 2026-04-30 10:28 | -7.48407 | 115.43371 | 26301 ft | 500 kts | 333° |
| 2026-04-30 10:28 | -7.45373 | 115.41744 | 26678 ft | 499 kts | 333° |
| 2026-04-30 10:28 | -7.42317 | 115.40104 | 27065 ft | 498 kts | 333° |
| 2026-04-30 10:29 | -7.39261 | 115.38465 | 27461 ft | 497 kts | 333° |
| 2026-04-30 10:29 | -7.36207 | 115.36827 | 27869 ft | 496 kts | 333° |
| 2026-04-30 10:29 | -7.33167 | 115.35196 | 28295 ft | 495 kts | 333° |
| 2026-04-30 10:29 | -7.30129 | 115.33568 | 28717 ft | 494 kts | 333° |
| 2026-04-30 10:30 | -7.27098 | 115.31943 | 29112 ft | 494 kts | 333° |
| 2026-04-30 10:30 | -7.24059 | 115.30314 | 29492 ft | 494 kts | 333° |
| 2026-04-30 10:30 | -7.21025 | 115.28693 | 29931 ft | 493 kts | 333° |
| 2026-04-30 10:30 | -7.17992 | 115.27074 | 30271 ft | 493 kts | 333° |
| 2026-04-30 10:31 | -7.14960 | 115.25455 | 30639 ft | 492 kts | 333° |
| 2026-04-30 10:31 | -7.11934 | 115.23836 | 31025 ft | 491 kts | 332° |
| 2026-04-30 10:31 | -7.08918 | 115.22219 | 31410 ft | 490 kts | 332° |
| 2026-04-30 10:31 | -7.05954 | 115.20627 | 31802 ft | 489 kts | 332° |
| 2026-04-30 10:32 | -7.02952 | 115.19016 | 32211 ft | 488 kts | 332° |
| 2026-04-30 10:32 | -6.99960 | 115.17414 | 32634 ft | 487 kts | 332° |
| 2026-04-30 10:32 | -6.96970 | 115.15815 | 33062 ft | 486 kts | 332° |
| 2026-04-30 10:32 | -6.93985 | 115.14219 | 33494 ft | 485 kts | 332° |
| 2026-04-30 10:33 | -6.91010 | 115.12628 | 33934 ft | 484 kts | 332° |
| 2026-04-30 10:33 | -6.89000 | 115.11554 | 34212 ft | 483 kts | 332° |
| 2026-04-30 10:33 | -6.85036 | 115.09539 | 34739 ft | 481 kts | 338° |
| 2026-04-30 10:33 | -6.81869 | 115.08486 | 35126 ft | 479 kts | 347° |
| 2026-04-30 10:34 | -6.79704 | 115.08071 | 35391 ft | 478 kts | 353° |
| 2026-04-30 10:34 | -6.76398 | 115.07818 | 35796 ft | 476 kts | 358° |
| 2026-04-30 10:34 | -6.73095 | 115.07637 | 36217 ft | 474 kts | 357° |
| 2026-04-30 10:34 | -6.69808 | 115.07453 | 36634 ft | 472 kts | 357° |
| 2026-04-30 10:35 | -6.66532 | 115.07266 | 37053 ft | 471 kts | 357° |
| 2026-04-30 10:35 | -6.63265 | 115.07080 | 37467 ft | 469 kts | 357° |
| 2026-04-30 10:35 | -6.60012 | 115.06894 | 37808 ft | 468 kts | 357° |
| 2026-04-30 10:35 | -6.56756 | 115.06704 | 37890 ft | 467 kts | 357° |
| 2026-04-30 10:36 | -6.50269 | 115.06331 | 37895 ft | 466 kts | 357° |
| 2026-04-30 10:36 | -6.43795 | 115.05962 | 37896 ft | 466 kts | 357° |
| 2026-04-30 10:37 | -6.37313 | 115.05602 | 37896 ft | 466 kts | 357° |
| 2026-04-30 10:37 | -6.30838 | 115.05237 | 37896 ft | 466 kts | 357° |
| 2026-04-30 10:38 | -6.24404 | 115.04875 | 37895 ft | 466 kts | 357° |
| 2026-04-30 10:38 | -6.17925 | 115.04513 | 37892 ft | 466 kts | 357° |
| 2026-04-30 10:39 | -6.11432 | 115.04140 | 37897 ft | 467 kts | 357° |
| 2026-04-30 10:39 | -6.04944 | 115.03776 | 37901 ft | 467 kts | 357° |
| 2026-04-30 10:40 | -5.98447 | 115.03411 | 37901 ft | 467 kts | 357° |
| 2026-04-30 10:40 | -5.91950 | 115.03042 | 37902 ft | 467 kts | 357° |
| 2026-04-30 10:41 | -5.85455 | 115.02669 | 37909 ft | 467 kts | 356° |
| 2026-04-30 10:41 | -5.78965 | 115.02314 | 37909 ft | 467 kts | 356° |
| 2026-04-30 10:42 | -5.72475 | 115.01949 | 37908 ft | 467 kts | 356° |
| 2026-04-30 10:42 | -5.66031 | 115.01580 | 37910 ft | 466 kts | 356° |
| 2026-04-30 10:43 | -5.59552 | 115.01222 | 37909 ft | 466 kts | 356° |
| 2026-04-30 10:43 | -5.53068 | 115.00864 | 37909 ft | 466 kts | 356° |
| 2026-04-30 10:44 | -5.46587 | 115.00502 | 37908 ft | 466 kts | 356° |
| 2026-04-30 10:44 | -5.40123 | 115.00126 | 37910 ft | 465 kts | 356° |
| 2026-04-30 10:45 | -5.33647 | 114.99759 | 37908 ft | 465 kts | 356° |
| 2026-04-30 10:45 | -5.27188 | 114.99399 | 37906 ft | 465 kts | 356° |
| 2026-04-30 10:46 | -5.20730 | 114.99035 | 37905 ft | 464 kts | 356° |
| 2026-04-30 10:46 | -5.14266 | 114.98670 | 37898 ft | 465 kts | 356° |
| 2026-04-30 10:47 | -5.07798 | 114.98309 | 37895 ft | 465 kts | 356° |
| 2026-04-30 10:47 | -5.01327 | 114.97941 | 37894 ft | 466 kts | 356° |
| 2026-04-30 10:48 | -4.94850 | 114.97571 | 37892 ft | 466 kts | 356° |
| 2026-04-30 10:48 | -4.88411 | 114.97202 | 37894 ft | 466 kts | 356° |
| 2026-04-30 10:49 | -4.81930 | 114.96844 | 37893 ft | 466 kts | 356° |
| 2026-04-30 10:49 | -4.75446 | 114.96492 | 37897 ft | 466 kts | 356° |
| 2026-04-30 10:50 | -4.68969 | 114.96130 | 37899 ft | 466 kts | 356° |
| 2026-04-30 10:50 | -4.62485 | 114.95767 | 37900 ft | 466 kts | 356° |
| 2026-04-30 10:51 | -4.56009 | 114.95405 | 37903 ft | 466 kts | 356° |
| 2026-04-30 10:51 | -4.49539 | 114.95034 | 37903 ft | 466 kts | 356° |
| 2026-04-30 10:52 | -4.43102 | 114.94664 | 37902 ft | 466 kts | 357° |
| 2026-04-30 10:52 | -4.36621 | 114.94308 | 37903 ft | 466 kts | 357° |
| 2026-04-30 10:53 | -4.30144 | 114.93985 | 37904 ft | 466 kts | 358° |
| 2026-04-30 10:53 | -4.23658 | 114.93793 | 37908 ft | 466 kts | 359° |
| 2026-04-30 10:54 | -4.17178 | 114.93633 | 37908 ft | 466 kts | 359° |
| 2026-04-30 10:54 | -4.10690 | 114.93447 | 37912 ft | 466 kts | 359° |
| 2026-04-30 10:55 | -4.04204 | 114.93238 | 37911 ft | 466 kts | 359° |
| 2026-04-30 10:55 | -3.97725 | 114.93015 | 37911 ft | 466 kts | 359° |
| 2026-04-30 10:56 | -3.91288 | 114.92808 | 37913 ft | 466 kts | 359° |
| 2026-04-30 10:56 | -3.84815 | 114.92606 | 37909 ft | 465 kts | 359° |
| 2026-04-30 10:57 | -3.78340 | 114.92405 | 37914 ft | 465 kts | 359° |
| 2026-04-30 10:57 | -3.71874 | 114.92210 | 37910 ft | 464 kts | 359° |
| 2026-04-30 10:58 | -3.65406 | 114.92001 | 37909 ft | 463 kts | 358° |
| 2026-04-30 10:58 | -3.58960 | 114.91799 | 37906 ft | 463 kts | 359° |
| 2026-04-30 10:59 | -3.52518 | 114.91600 | 37904 ft | 463 kts | 359° |
| 2026-04-30 10:59 | -3.46077 | 114.91397 | 37905 ft | 463 kts | 359° |
| 2026-04-30 11:00 | -3.39640 | 114.91194 | 37887 ft | 463 kts | 359° |
| 2026-04-30 11:00 | -3.33193 | 114.90991 | 37893 ft | 464 kts | 359° |
| 2026-04-30 11:01 | -3.26745 | 114.90781 | 37897 ft | 464 kts | 359° |
| 2026-04-30 11:01 | -3.20330 | 114.90577 | 37898 ft | 464 kts | 359° |
| 2026-04-30 11:02 | -3.13874 | 114.90377 | 37897 ft | 464 kts | 359° |
| 2026-04-30 11:02 | -3.07419 | 114.90171 | 37897 ft | 464 kts | 359° |
| 2026-04-30 11:03 | -3.00962 | 114.89967 | 37899 ft | 464 kts | 359° |
| 2026-04-30 11:04 | -2.91277 | 114.89668 | 37896 ft | 464 kts | 359° |
| 2026-04-30 11:04 | -2.84819 | 114.89467 | 37893 ft | 464 kts | 359° |
| 2026-04-30 11:05 | -2.78358 | 114.89259 | 37897 ft | 464 kts | 359° |
| 2026-04-30 11:05 | -2.71903 | 114.89051 | 37889 ft | 464 kts | 359° |
| 2026-04-30 11:06 | -2.65483 | 114.88849 | 37884 ft | 465 kts | 359° |
| 2026-04-30 11:06 | -2.58997 | 114.88648 | 37885 ft | 465 kts | 359° |
| 2026-04-30 11:07 | -2.52524 | 114.88443 | 37893 ft | 466 kts | 359° |
| 2026-04-30 11:07 | -2.46042 | 114.88234 | 37897 ft | 466 kts | 359° |
| 2026-04-30 11:08 | -2.39555 | 114.88035 | 37894 ft | 466 kts | 359° |
| 2026-04-30 11:08 | -2.33119 | 114.87835 | 37899 ft | 465 kts | 359° |
| 2026-04-30 11:09 | -2.26643 | 114.87628 | 37901 ft | 465 kts | 359° |
| 2026-04-30 11:09 | -2.20164 | 114.87425 | 37898 ft | 465 kts | 359° |
| 2026-04-30 11:10 | -2.13692 | 114.87226 | 37897 ft | 465 kts | 359° |
| 2026-04-30 11:10 | -2.07212 | 114.87023 | 37897 ft | 465 kts | 359° |
| 2026-04-30 11:11 | -2.00777 | 114.86815 | 37898 ft | 466 kts | 359° |
| 2026-04-30 11:11 | -1.94298 | 114.86611 | 37895 ft | 466 kts | 359° |
| 2026-04-30 11:12 | -1.87814 | 114.86410 | 37894 ft | 466 kts | 359° |
| 2026-04-30 11:12 | -1.81328 | 114.86202 | 37897 ft | 466 kts | 359° |
| 2026-04-30 11:13 | -1.74841 | 114.85999 | 37898 ft | 466 kts | 359° |
| 2026-04-30 11:13 | -1.68353 | 114.85800 | 37893 ft | 467 kts | 359° |
| 2026-04-30 11:14 | -1.61858 | 114.85594 | 37891 ft | 467 kts | 359° |
| 2026-04-30 11:14 | -1.55344 | 114.85387 | 37892 ft | 467 kts | 359° |
| 2026-04-30 11:15 | -1.48828 | 114.85180 | 37896 ft | 468 kts | 359° |
| 2026-04-30 11:15 | -1.43426 | 114.85009 | 37897 ft | 468 kts | 359° |
| 2026-04-30 11:16 | -1.36915 | 114.84803 | 37896 ft | 468 kts | 359° |
| 2026-04-30 11:16 | -1.30411 | 114.84603 | 37899 ft | 468 kts | 359° |
| 2026-04-30 11:17 | -1.23902 | 114.84408 | 37899 ft | 467 kts | 359° |
| 2026-04-30 11:17 | -1.17395 | 114.84197 | 37899 ft | 467 kts | 359° |
| 2026-04-30 11:18 | -1.10891 | 114.83986 | 37896 ft | 467 kts | 359° |
| 2026-04-30 11:18 | -1.01182 | 114.83675 | 37897 ft | 467 kts | 359° |
| 2026-04-30 11:19 | -0.94684 | 114.83478 | 37893 ft | 467 kts | 359° |
| 2026-04-30 11:19 | -0.88178 | 114.83353 | 37893 ft | 467 kts | 1° |
| 2026-04-30 11:20 | -0.81680 | 114.83424 | 37894 ft | 466 kts | 2° |
| 2026-04-30 11:20 | -0.75192 | 114.83541 | 37894 ft | 466 kts | 1° |
| 2026-04-30 11:21 | -0.68696 | 114.83613 | 37896 ft | 466 kts | 1° |
| 2026-04-30 11:21 | -0.62200 | 114.83645 | 37894 ft | 467 kts | 1° |
| 2026-04-30 11:22 | -0.55697 | 114.83681 | 37891 ft | 467 kts | 1° |
| 2026-04-30 11:22 | -0.49205 | 114.83730 | 37895 ft | 467 kts | 1° |
| 2026-04-30 11:23 | -0.42695 | 114.83774 | 37895 ft | 467 kts | 1° |
| 2026-04-30 11:24 | -0.32935 | 114.83839 | 37903 ft | 467 kts | 1° |
| 2026-04-30 11:24 | -0.26471 | 114.83882 | 37906 ft | 467 kts | 1° |
| 2026-04-30 11:25 | -0.16699 | 114.83953 | 37905 ft | 468 kts | 1° |
| 2026-04-30 11:26 | -0.03682 | 114.84054 | 37912 ft | 468 kts | 1° |
| 2026-04-30 11:26 | 0.02835 | 114.84100 | 37920 ft | 468 kts | 1° |
| 2026-04-30 11:27 | 0.09345 | 114.84145 | 37917 ft | 468 kts | 1° |
| 2026-04-30 11:27 | 0.15861 | 114.84193 | 37917 ft | 467 kts | 1° |
| 2026-04-30 11:28 | 0.25590 | 114.84259 | 37918 ft | 467 kts | 1° |
| 2026-04-30 11:29 | 0.32096 | 114.84300 | 37921 ft | 467 kts | 1° |
| 2026-04-30 11:29 | 0.41855 | 114.84364 | 37921 ft | 467 kts | 1° |
| 2026-04-30 11:30 | 0.51618 | 114.84433 | 37920 ft | 467 kts | 1° |
| 2026-04-30 11:31 | 0.58124 | 114.84486 | 37922 ft | 467 kts | 1° |
| 2026-04-30 11:31 | 0.64633 | 114.84534 | 37922 ft | 467 kts | 1° |
| 2026-04-30 11:32 | 0.71140 | 114.84584 | 37917 ft | 467 kts | 2° |
| 2026-04-30 11:32 | 0.77642 | 114.84637 | 37916 ft | 467 kts | 2° |
| 2026-04-30 11:33 | 0.87368 | 114.84702 | 37917 ft | 468 kts | 2° |
| 2026-04-30 11:33 | 0.93878 | 114.84737 | 37917 ft | 468 kts | 2° |
| 2026-04-30 11:34 | 1.00384 | 114.84784 | 37917 ft | 468 kts | 2° |
| 2026-04-30 11:34 | 1.06892 | 114.84834 | 37921 ft | 468 kts | 2° |
| 2026-04-30 11:35 | 1.13403 | 114.84877 | 37928 ft | 468 kts | 2° |
| 2026-04-30 11:35 | 1.19934 | 114.84924 | 37926 ft | 468 kts | 1° |
| 2026-04-30 11:36 | 1.26455 | 114.84975 | 37937 ft | 468 kts | 2° |
| 2026-04-30 11:36 | 1.32975 | 114.85022 | 37939 ft | 469 kts | 2° |
| 2026-04-30 11:37 | 1.39499 | 114.85064 | 37946 ft | 469 kts | 2° |
| 2026-04-30 11:37 | 1.45976 | 114.85112 | 37945 ft | 468 kts | 1° |
| 2026-04-30 11:38 | 1.52492 | 114.85156 | 37946 ft | 468 kts | 1° |
| 2026-04-30 11:38 | 1.59016 | 114.85198 | 37945 ft | 468 kts | 1° |
| 2026-04-30 11:39 | 1.65528 | 114.85243 | 37946 ft | 468 kts | 2° |
| 2026-04-30 11:39 | 1.72047 | 114.85291 | 37942 ft | 468 kts | 1° |
| 2026-04-30 11:40 | 1.78566 | 114.85339 | 37944 ft | 468 kts | 1° |
| 2026-04-30 11:40 | 1.84872 | 114.85382 | 37945 ft | 468 kts | 1° |
| 2026-04-30 11:41 | 1.91375 | 114.85433 | 37944 ft | 467 kts | 1° |
| 2026-04-30 11:41 | 1.97834 | 114.85481 | 37943 ft | 467 kts | 1° |
| 2026-04-30 11:42 | 2.04342 | 114.85524 | 37939 ft | 467 kts | 1° |
| 2026-04-30 11:42 | 2.10847 | 114.85565 | 37946 ft | 467 kts | 1° |
| 2026-04-30 11:43 | 2.17350 | 114.85612 | 37943 ft | 467 kts | 2° |
| 2026-04-30 11:43 | 2.23847 | 114.85659 | 37951 ft | 467 kts | 1° |
| 2026-04-30 11:44 | 2.30356 | 114.85710 | 37953 ft | 467 kts | 1° |
| 2026-04-30 11:44 | 2.36816 | 114.85768 | 37955 ft | 467 kts | 1° |
| 2026-04-30 11:45 | 2.43316 | 114.85826 | 37959 ft | 467 kts | 1° |
| 2026-04-30 11:45 | 2.49807 | 114.85886 | 37965 ft | 466 kts | 1° |
| 2026-04-30 11:46 | 2.56286 | 114.85939 | 37963 ft | 465 kts | 1° |
| 2026-04-30 11:46 | 2.62761 | 114.85995 | 37962 ft | 465 kts | 1° |
| 2026-04-30 11:47 | 2.69225 | 114.86054 | 37958 ft | 465 kts | 1° |
| 2026-04-30 11:47 | 2.75701 | 114.86106 | 37956 ft | 464 kts | 1° |
| 2026-04-30 11:48 | 2.82164 | 114.86162 | 37936 ft | 465 kts | 2° |
| 2026-04-30 11:48 | 2.88635 | 114.86221 | 37932 ft | 465 kts | 1° |
| 2026-04-30 11:49 | 2.95109 | 114.86282 | 37925 ft | 465 kts | 1° |
| 2026-04-30 11:49 | 3.01589 | 114.86335 | 37925 ft | 465 kts | 1° |
| 2026-04-30 11:50 | 3.08027 | 114.86382 | 37919 ft | 466 kts | 2° |
| 2026-04-30 11:50 | 3.14520 | 114.86438 | 37920 ft | 466 kts | 1° |
| 2026-04-30 11:51 | 3.21018 | 114.86495 | 37913 ft | 467 kts | 1° |
| 2026-04-30 11:51 | 3.27513 | 114.86553 | 37915 ft | 467 kts | 1° |
| 2026-04-30 11:52 | 3.34024 | 114.86612 | 37913 ft | 467 kts | 1° |
| 2026-04-30 11:52 | 3.40538 | 114.86667 | 37916 ft | 467 kts | 1° |
| 2026-04-30 11:53 | 3.47043 | 114.86725 | 37922 ft | 468 kts | 1° |
| 2026-04-30 11:53 | 3.53511 | 114.86784 | 37916 ft | 468 kts | 1° |
| 2026-04-30 11:54 | 3.60031 | 114.86841 | 37917 ft | 468 kts | 1° |
| 2026-04-30 11:54 | 3.66543 | 114.86895 | 37919 ft | 468 kts | 1° |
| 2026-04-30 11:55 | 3.73067 | 114.86948 | 37920 ft | 468 kts | 1° |
| 2026-04-30 11:55 | 3.79584 | 114.87010 | 37918 ft | 468 kts | 1° |
| 2026-04-30 11:56 | 3.86102 | 114.87073 | 37919 ft | 468 kts | 1° |
| 2026-04-30 11:56 | 3.91526 | 114.87119 | 37920 ft | 468 kts | 1° |
| 2026-04-30 11:57 | 3.98049 | 114.87171 | 37923 ft | 468 kts | 1° |
| 2026-04-30 11:57 | 4.04566 | 114.87227 | 37917 ft | 468 kts | 1° |
| 2026-04-30 11:58 | 4.11082 | 114.87282 | 37916 ft | 468 kts | 1° |
| 2026-04-30 11:58 | 4.17607 | 114.87338 | 37914 ft | 468 kts | 1° |
| 2026-04-30 11:59 | 4.24129 | 114.87395 | 37914 ft | 468 kts | 1° |
| 2026-04-30 11:59 | 4.30611 | 114.87454 | 37911 ft | 469 kts | 1° |
| 2026-04-30 12:00 | 4.37141 | 114.87513 | 37911 ft | 469 kts | 1° |
| 2026-04-30 12:00 | 4.43664 | 114.87567 | 37904 ft | 469 kts | 1° |
| 2026-04-30 12:01 | 4.50192 | 114.87680 | 37907 ft | 469 kts | 2° |
| 2026-04-30 12:01 | 4.56720 | 114.87853 | 37890 ft | 469 kts | 3° |
| 2026-04-30 12:02 | 4.63222 | 114.88019 | 37884 ft | 470 kts | 2° |
| 2026-04-30 12:02 | 4.69766 | 114.88162 | 37886 ft | 471 kts | 2° |
| 2026-04-30 12:03 | 4.79605 | 114.88385 | 37892 ft | 471 kts | 2° |
| 2026-04-30 12:04 | 4.86171 | 114.88529 | 37885 ft | 471 kts | 2° |
| 2026-04-30 12:04 | 4.92686 | 114.88553 | 37893 ft | 472 kts | 360° |
| 2026-04-30 12:05 | 4.99248 | 114.88355 | 37899 ft | 472 kts | 358° |
| 2026-04-30 12:05 | 5.05815 | 114.88132 | 37896 ft | 472 kts | 359° |
| 2026-04-30 12:06 | 5.12389 | 114.87959 | 37889 ft | 472 kts | 359° |
| 2026-04-30 12:06 | 5.18964 | 114.87825 | 37889 ft | 472 kts | 0° |
| 2026-04-30 12:07 | 5.25532 | 114.87686 | 37892 ft | 472 kts | 360° |
| 2026-04-30 12:07 | 5.32090 | 114.87533 | 37889 ft | 471 kts | 360° |
| 2026-04-30 12:08 | 5.38611 | 114.87408 | 37888 ft | 471 kts | 0° |
| 2026-04-30 12:08 | 5.45166 | 114.87346 | 37885 ft | 471 kts | 0° |
| 2026-04-30 12:09 | 5.51732 | 114.87285 | 37889 ft | 471 kts | 360° |
| 2026-04-30 12:09 | 5.58289 | 114.87204 | 37897 ft | 471 kts | 0° |
| 2026-04-30 12:10 | 5.64841 | 114.87117 | 37895 ft | 470 kts | 0° |
| 2026-04-30 12:10 | 5.71386 | 114.87020 | 37892 ft | 470 kts | 0° |
| 2026-04-30 12:11 | 5.77928 | 114.86917 | 37891 ft | 470 kts | 0° |
| 2026-04-30 12:11 | 5.84465 | 114.86814 | 37893 ft | 470 kts | 359° |
| 2026-04-30 12:12 | 5.90966 | 114.86713 | 37893 ft | 469 kts | 360° |
| 2026-04-30 12:12 | 5.97501 | 114.86608 | 37895 ft | 469 kts | 0° |
| 2026-04-30 12:13 | 6.04022 | 114.86493 | 37894 ft | 468 kts | 359° |
| 2026-04-30 12:13 | 6.10539 | 114.86378 | 37892 ft | 468 kts | 360° |
| 2026-04-30 12:14 | 6.17045 | 114.86262 | 37894 ft | 468 kts | 359° |
| 2026-04-30 12:14 | 6.23563 | 114.86154 | 37895 ft | 468 kts | 0° |
| 2026-04-30 12:15 | 6.30069 | 114.86049 | 37895 ft | 468 kts | 360° |
| 2026-04-30 12:15 | 6.36575 | 114.85937 | 37892 ft | 467 kts | 0° |
| 2026-04-30 12:16 | 6.43080 | 114.85841 | 37891 ft | 467 kts | 360° |
| 2026-04-30 12:16 | 6.49591 | 114.85759 | 37893 ft | 467 kts | 0° |
| 2026-04-30 12:17 | 6.59305 | 114.85622 | 37888 ft | 468 kts | 360° |
| 2026-04-30 12:17 | 6.65816 | 114.85526 | 37888 ft | 468 kts | 0° |
| 2026-04-30 12:18 | 6.72338 | 114.85432 | 37892 ft | 468 kts | 359° |
| 2026-04-30 12:18 | 6.78859 | 114.85342 | 37895 ft | 468 kts | 360° |
| 2026-04-30 12:19 | 6.85343 | 114.85247 | 37893 ft | 468 kts | 0° |
| 2026-04-30 12:19 | 6.91858 | 114.85154 | 37894 ft | 468 kts | 359° |
| 2026-04-30 12:20 | 6.98385 | 114.85062 | 37897 ft | 468 kts | 0° |
| 2026-04-30 12:20 | 7.04915 | 114.84976 | 37896 ft | 469 kts | 0° |
| 2026-04-30 12:21 | 7.11440 | 114.84894 | 37895 ft | 469 kts | 359° |
| 2026-04-30 12:21 | 7.17964 | 114.84797 | 37896 ft | 469 kts | 360° |
| 2026-04-30 12:22 | 7.24493 | 114.84689 | 37897 ft | 469 kts | 360° |
| 2026-04-30 12:22 | 7.31018 | 114.84592 | 37898 ft | 469 kts | 0° |
| 2026-04-30 12:23 | 7.37541 | 114.84508 | 37901 ft | 469 kts | 0° |
| 2026-04-30 12:23 | 7.44074 | 114.84420 | 37902 ft | 469 kts | 0° |
| 2026-04-30 12:24 | 7.50597 | 114.84326 | 37903 ft | 469 kts | 360° |
| 2026-04-30 12:24 | 7.57122 | 114.84227 | 37902 ft | 469 kts | 0° |
| 2026-04-30 12:25 | 7.63618 | 114.84129 | 37899 ft | 469 kts | 0° |
| 2026-04-30 12:25 | 7.70151 | 114.84039 | 37899 ft | 469 kts | 0° |
| 2026-04-30 12:26 | 7.76688 | 114.83943 | 37901 ft | 469 kts | 0° |
| 2026-04-30 12:26 | 7.83224 | 114.83847 | 37903 ft | 470 kts | 0° |
| 2026-04-30 12:27 | 7.89758 | 114.83756 | 37908 ft | 470 kts | 360° |
| 2026-04-30 12:27 | 7.96298 | 114.83667 | 37903 ft | 470 kts | 0° |
| 2026-04-30 12:28 | 8.02849 | 114.83578 | 37898 ft | 470 kts | 0° |
| 2026-04-30 12:28 | 8.09400 | 114.83478 | 37899 ft | 471 kts | 359° |
| 2026-04-30 12:29 | 8.15956 | 114.83374 | 37906 ft | 471 kts | 360° |
| 2026-04-30 12:29 | 8.22514 | 114.83281 | 37907 ft | 471 kts | 360° |
| 2026-04-30 12:30 | 8.29029 | 114.83182 | 37903 ft | 471 kts | 359° |
| 2026-04-30 12:30 | 8.35591 | 114.83083 | 37902 ft | 472 kts | 359° |
| 2026-04-30 12:31 | 8.42174 | 114.82978 | 37904 ft | 472 kts | 359° |
| 2026-04-30 12:31 | 8.48751 | 114.82877 | 37903 ft | 473 kts | 359° |
| 2026-04-30 12:32 | 8.55333 | 114.82778 | 37908 ft | 473 kts | 359° |
| 2026-04-30 12:32 | 8.61923 | 114.82674 | 37907 ft | 473 kts | 359° |
| 2026-04-30 12:33 | 8.68503 | 114.82566 | 37909 ft | 473 kts | 359° |
| 2026-04-30 12:33 | 8.75031 | 114.82464 | 37894 ft | 466 kts | 359° |
| 2026-04-30 12:34 | 8.81583 | 114.82368 | 37912 ft | 473 kts | 359° |
| 2026-04-30 12:34 | 8.88167 | 114.82265 | 37912 ft | 473 kts | 359° |
| 2026-04-30 12:35 | 8.94754 | 114.82164 | 37915 ft | 473 kts | 359° |
| 2026-04-30 12:35 | 9.01341 | 114.82066 | 37912 ft | 474 kts | 359° |
| 2026-04-30 12:36 | 9.07951 | 114.81970 | 37918 ft | 474 kts | 359° |
| 2026-04-30 12:36 | 9.14557 | 114.81863 | 37917 ft | 475 kts | 359° |
| 2026-04-30 12:37 | 9.21167 | 114.81760 | 37920 ft | 475 kts | 359° |
| 2026-04-30 12:37 | 9.27741 | 114.81656 | 37921 ft | 474 kts | 359° |
| 2026-04-30 12:38 | 9.34347 | 114.81552 | 37917 ft | 475 kts | 359° |
| 2026-04-30 12:38 | 9.39838 | 114.81471 | 37922 ft | 474 kts | 359° |
| 2026-04-30 12:39 | 9.46451 | 114.81366 | 37918 ft | 475 kts | 358° |
| 2026-04-30 12:39 | 9.53049 | 114.81261 | 37920 ft | 475 kts | 359° |
| 2026-04-30 12:40 | 9.59656 | 114.81162 | 37922 ft | 475 kts | 359° |
| 2026-04-30 12:40 | 9.66265 | 114.81063 | 37922 ft | 475 kts | 359° |
| 2026-04-30 12:41 | 9.72875 | 114.80964 | 37925 ft | 474 kts | 358° |
| 2026-04-30 12:41 | 9.79481 | 114.80858 | 37919 ft | 475 kts | 358° |
| 2026-04-30 12:42 | 9.86042 | 114.80741 | 37920 ft | 474 kts | 358° |
| 2026-04-30 12:42 | 9.92646 | 114.80568 | 37918 ft | 474 kts | 358° |
| 2026-04-30 12:43 | 9.99255 | 114.80376 | 37918 ft | 475 kts | 358° |
| 2026-04-30 12:43 | 10.05865 | 114.80205 | 37927 ft | 475 kts | 358° |
| 2026-04-30 12:44 | 10.12475 | 114.80036 | 37919 ft | 475 kts | 357° |
| 2026-04-30 12:44 | 10.19095 | 114.79864 | 37922 ft | 475 kts | 358° |
| 2026-04-30 12:45 | 10.25704 | 114.79701 | 37924 ft | 475 kts | 358° |
| 2026-04-30 12:45 | 10.32323 | 114.79531 | 37924 ft | 476 kts | 358° |
| 2026-04-30 12:46 | 10.38960 | 114.79362 | 37920 ft | 477 kts | 358° |
| 2026-04-30 12:46 | 10.45599 | 114.79193 | 37915 ft | 478 kts | 358° |
| 2026-04-30 12:47 | 10.52244 | 114.79022 | 37923 ft | 478 kts | 358° |
| 2026-04-30 12:47 | 10.58895 | 114.78847 | 37920 ft | 478 kts | 358° |
| 2026-04-30 12:48 | 10.65516 | 114.78678 | 37926 ft | 478 kts | 358° |
| 2026-04-30 12:48 | 10.72172 | 114.78510 | 37928 ft | 479 kts | 358° |
| 2026-04-30 12:49 | 10.78831 | 114.78340 | 37927 ft | 479 kts | 358° |
| 2026-04-30 12:49 | 10.85497 | 114.78169 | 37934 ft | 478 kts | 358° |
| 2026-04-30 12:50 | 10.92152 | 114.77993 | 37928 ft | 479 kts | 358° |
| 2026-04-30 12:50 | 10.98815 | 114.77829 | 37936 ft | 479 kts | 358° |
| 2026-04-30 12:51 | 11.05472 | 114.77663 | 37934 ft | 479 kts | 358° |
| 2026-04-30 12:51 | 11.12131 | 114.77486 | 37938 ft | 478 kts | 357° |
| 2026-04-30 12:52 | 11.18786 | 114.77307 | 37936 ft | 478 kts | 358° |
| 2026-04-30 12:52 | 11.25441 | 114.77134 | 37936 ft | 478 kts | 358° |
| 2026-04-30 12:53 | 11.32093 | 114.76967 | 37938 ft | 478 kts | 357° |
| 2026-04-30 12:53 | 11.38751 | 114.76798 | 37939 ft | 478 kts | 358° |
| 2026-04-30 12:54 | 11.45367 | 114.76631 | 37945 ft | 478 kts | 357° |
| 2026-04-30 12:54 | 11.52020 | 114.76448 | 37943 ft | 478 kts | 357° |
| 2026-04-30 12:55 | 11.58667 | 114.76124 | 37942 ft | 478 kts | 355° |
| 2026-04-30 12:55 | 11.65312 | 114.75743 | 37943 ft | 478 kts | 355° |
| 2026-04-30 12:56 | 11.71964 | 114.75401 | 37945 ft | 478 kts | 356° |
| 2026-04-30 12:56 | 11.78610 | 114.75078 | 37946 ft | 478 kts | 356° |
| 2026-04-30 12:57 | 11.85252 | 114.74751 | 37949 ft | 478 kts | 356° |
| 2026-04-30 12:57 | 11.91901 | 114.74429 | 37950 ft | 478 kts | 356° |
| 2026-04-30 12:58 | 11.98546 | 114.74122 | 37950 ft | 478 kts | 356° |
| 2026-04-30 12:58 | 12.05197 | 114.73919 | 37950 ft | 478 kts | 357° |
| 2026-04-30 12:59 | 12.11804 | 114.73745 | 37950 ft | 478 kts | 356° |
| 2026-04-30 12:59 | 12.18453 | 114.73551 | 37949 ft | 478 kts | 356° |
| 2026-04-30 13:00 | 12.25110 | 114.73340 | 37948 ft | 478 kts | 356° |
| 2026-04-30 13:00 | 12.31759 | 114.73125 | 37957 ft | 478 kts | 356° |
| 2026-04-30 13:01 | 12.38412 | 114.72920 | 37954 ft | 478 kts | 356° |
| 2026-04-30 13:01 | 12.45074 | 114.72715 | 37952 ft | 478 kts | 356° |
| 2026-04-30 13:02 | 12.51731 | 114.72507 | 37954 ft | 478 kts | 356° |
| 2026-04-30 13:02 | 12.58342 | 114.72299 | 37954 ft | 478 kts | 356° |
| 2026-04-30 13:03 | 12.65002 | 114.72086 | 37955 ft | 478 kts | 356° |
| 2026-04-30 13:03 | 12.71657 | 114.71880 | 37959 ft | 478 kts | 356° |
| 2026-04-30 13:04 | 12.78302 | 114.71675 | 37960 ft | 478 kts | 356° |
| 2026-04-30 13:04 | 12.84951 | 114.71467 | 37958 ft | 478 kts | 356° |
| 2026-04-30 13:05 | 12.91601 | 114.71257 | 37957 ft | 478 kts | 356° |
| 2026-04-30 13:06 | 13.01565 | 114.70947 | 37959 ft | 478 kts | 356° |
| 2026-04-30 13:06 | 13.08211 | 114.70740 | 37957 ft | 478 kts | 356° |
| 2026-04-30 13:07 | 13.14849 | 114.70527 | 37965 ft | 478 kts | 356° |
| 2026-04-30 13:07 | 13.21461 | 114.70323 | 37964 ft | 478 kts | 356° |
| 2026-04-30 13:08 | 13.28107 | 114.70118 | 37960 ft | 478 kts | 356° |
| 2026-04-30 13:08 | 13.34753 | 114.69903 | 37960 ft | 478 kts | 356° |
| 2026-04-30 13:09 | 13.41408 | 114.69687 | 37954 ft | 478 kts | 356° |
| 2026-04-30 13:09 | 13.48066 | 114.69478 | 37955 ft | 478 kts | 356° |
| 2026-04-30 13:10 | 13.54727 | 114.69275 | 37956 ft | 479 kts | 356° |
| 2026-04-30 13:10 | 13.61388 | 114.69070 | 37961 ft | 479 kts | 356° |
| 2026-04-30 13:11 | 13.68059 | 114.68855 | 37957 ft | 479 kts | 356° |
| 2026-04-30 13:11 | 13.74729 | 114.68635 | 37955 ft | 480 kts | 356° |
| 2026-04-30 13:12 | 13.81364 | 114.68430 | 37959 ft | 480 kts | 356° |
| 2026-04-30 13:12 | 13.88037 | 114.68220 | 37960 ft | 480 kts | 356° |
| 2026-04-30 13:13 | 13.98055 | 114.67897 | 37964 ft | 480 kts | 356° |
| 2026-04-30 13:14 | 14.08075 | 114.67589 | 37965 ft | 480 kts | 356° |
| 2026-04-30 13:14 | 14.18118 | 114.67277 | 37968 ft | 480 kts | 356° |
| 2026-04-30 13:15 | 14.28137 | 114.66952 | 37980 ft | 480 kts | 356° |
| 2026-04-30 13:16 | 14.34825 | 114.66733 | 37973 ft | 480 kts | 356° |
| 2026-04-30 13:16 | 14.41464 | 114.66526 | 37971 ft | 481 kts | 356° |
| 2026-04-30 13:17 | 14.51496 | 114.66210 | 37969 ft | 481 kts | 356° |
| 2026-04-30 13:18 | 14.61527 | 114.65890 | 37979 ft | 481 kts | 356° |
| 2026-04-30 13:18 | 14.71555 | 114.65572 | 37979 ft | 480 kts | 356° |
| 2026-04-30 13:19 | 14.78233 | 114.65359 | 37977 ft | 480 kts | 356° |
| 2026-04-30 13:19 | 14.84914 | 114.65155 | 37979 ft | 480 kts | 356° |
| 2026-04-30 13:20 | 14.90550 | 114.64979 | 37978 ft | 480 kts | 356° |
| 2026-04-30 13:20 | 14.97187 | 114.64762 | 37990 ft | 479 kts | 356° |
| 2026-04-30 13:21 | 15.03862 | 114.64539 | 37985 ft | 479 kts | 356° |
| 2026-04-30 13:22 | 15.13847 | 114.64222 | 37986 ft | 478 kts | 356° |
| 2026-04-30 13:22 | 15.23826 | 114.63908 | 37986 ft | 478 kts | 356° |
| 2026-04-30 13:23 | 15.33765 | 114.63579 | 37999 ft | 477 kts | 356° |
| 2026-04-30 13:24 | 15.46750 | 114.63172 | 37995 ft | 475 kts | 356° |
| 2026-04-30 13:25 | 15.59968 | 114.62744 | 37999 ft | 475 kts | 356° |
| 2026-04-30 13:26 | 15.76451 | 114.62223 | 37997 ft | 473 kts | 356° |
| 2026-04-30 13:28 | 15.92880 | 114.61690 | 38003 ft | 472 kts | 356° |
| 2026-04-30 13:28 | 16.02673 | 114.61373 | 38000 ft | 470 kts | 356° |
| 2026-04-30 13:29 | 16.15751 | 114.60951 | 38001 ft | 470 kts | 356° |
| 2026-04-30 13:31 | 16.32076 | 114.60427 | 38004 ft | 468 kts | 356° |
| 2026-04-30 13:32 | 16.48325 | 114.59893 | 38003 ft | 468 kts | 356° |
| 2026-04-30 13:33 | 16.61300 | 114.59473 | 38005 ft | 467 kts | 356° |
| 2026-04-30 13:34 | 16.71063 | 114.59157 | 38001 ft | 468 kts | 356° |
| 2026-04-30 13:35 | 16.84073 | 114.58731 | 37999 ft | 468 kts | 356° |
| 2026-04-30 13:36 | 16.97099 | 114.58319 | 38001 ft | 467 kts | 355° |
| 2026-04-30 13:36 | 17.06857 | 114.58000 | 38002 ft | 467 kts | 355° |
| 2026-04-30 13:37 | 17.16567 | 114.57675 | 38002 ft | 467 kts | 355° |
| 2026-04-30 13:38 | 17.26325 | 114.57352 | 38001 ft | 467 kts | 355° |
| 2026-04-30 13:39 | 17.36466 | 114.57021 | 38005 ft | 467 kts | 355° |
| 2026-04-30 13:40 | 17.46218 | 114.56718 | 38004 ft | 467 kts | 355° |
| 2026-04-30 13:40 | 17.52717 | 114.56518 | 38007 ft | 467 kts | 355° |
| 2026-04-30 13:41 | 17.59223 | 114.56324 | 38013 ft | 467 kts | 355° |
| 2026-04-30 13:41 | 17.65674 | 114.56127 | 38013 ft | 467 kts | 355° |
| 2026-04-30 13:42 | 17.72169 | 114.55930 | 38008 ft | 467 kts | 355° |
| 2026-04-30 13:42 | 17.81919 | 114.55624 | 38023 ft | 467 kts | 354° |
| 2026-04-30 13:43 | 17.88420 | 114.55417 | 38024 ft | 467 kts | 354° |
| 2026-04-30 13:43 | 17.94921 | 114.55223 | 38016 ft | 467 kts | 354° |
| 2026-04-30 13:44 | 18.01373 | 114.55030 | 38022 ft | 467 kts | 354° |
| 2026-04-30 13:44 | 18.07727 | 114.54830 | 38021 ft | 467 kts | 354° |
| 2026-04-30 13:45 | 18.17469 | 114.54525 | 38029 ft | 467 kts | 354° |
| 2026-04-30 13:46 | 18.23968 | 114.54519 | 38024 ft | 470 kts | 2° |
| 2026-04-30 13:46 | 18.30435 | 114.55814 | 38020 ft | 474 kts | 8° |
| 2026-04-30 13:47 | 18.36896 | 114.57223 | 38017 ft | 474 kts | 8° |
| 2026-04-30 13:47 | 18.43361 | 114.58629 | 38018 ft | 474 kts | 8° |
| 2026-04-30 13:48 | 18.49822 | 114.60034 | 38016 ft | 474 kts | 8° |
| 2026-04-30 13:48 | 18.56287 | 114.61453 | 38018 ft | 475 kts | 8° |
| 2026-04-30 13:49 | 18.57338 | 114.61683 | 38018 ft | 475 kts | 8° |
| 2026-04-30 13:50 | 18.60053 | 114.62382 | 37997 ft | 476 kts | 11° |
| 2026-04-30 13:50 | 18.69750 | 114.64509 | 37992 ft | 474 kts | 7° |
| 2026-04-30 13:51 | 18.76237 | 114.65811 | 38004 ft | 475 kts | 7° |
| 2026-04-30 13:51 | 18.82722 | 114.67215 | 38003 ft | 476 kts | 8° |
| 2026-04-30 13:52 | 18.89212 | 114.68667 | 38011 ft | 476 kts | 8° |
| 2026-04-30 13:52 | 18.95664 | 114.70100 | 38014 ft | 477 kts | 8° |
| 2026-04-30 13:53 | 19.02211 | 114.70841 | 38020 ft | 469 kts | 353° |
| 2026-04-30 13:53 | 19.08696 | 114.70297 | 38026 ft | 468 kts | 351° |
| 2026-04-30 13:54 | 19.15195 | 114.69754 | 38023 ft | 469 kts | 351° |
| 2026-04-30 13:54 | 19.21701 | 114.69218 | 38020 ft | 469 kts | 351° |
| 2026-04-30 13:55 | 19.28207 | 114.68671 | 38020 ft | 469 kts | 351° |
| 2026-04-30 13:55 | 19.34722 | 114.68125 | 38027 ft | 470 kts | 351° |
| 2026-04-30 13:56 | 19.41244 | 114.67569 | 38039 ft | 469 kts | 351° |
| 2026-04-30 13:56 | 19.47709 | 114.67015 | 38038 ft | 469 kts | 351° |
| 2026-04-30 13:57 | 19.54221 | 114.66462 | 38034 ft | 469 kts | 351° |
| 2026-04-30 13:57 | 19.60729 | 114.65908 | 38033 ft | 469 kts | 351° |
| 2026-04-30 13:58 | 19.70492 | 114.65082 | 38047 ft | 469 kts | 350° |
| 2026-04-30 13:59 | 19.76999 | 114.64527 | 38045 ft | 468 kts | 350° |
| 2026-04-30 13:59 | 19.83499 | 114.63979 | 38038 ft | 468 kts | 350° |
| 2026-04-30 14:00 | 19.90005 | 114.63423 | 38041 ft | 468 kts | 350° |
| 2026-04-30 14:00 | 19.98654 | 114.62684 | 38056 ft | 468 kts | 350° |
| 2026-04-30 14:01 | 20.05145 | 114.62134 | 38062 ft | 468 kts | 350° |
| 2026-04-30 14:01 | 20.12696 | 114.61493 | 38049 ft | 468 kts | 350° |
| 2026-04-30 14:02 | 20.18130 | 114.61020 | 37798 ft | 468 kts | 350° |
| 2026-04-30 14:02 | 20.21379 | 114.60735 | 37536 ft | 468 kts | 350° |
| 2026-04-30 14:02 | 20.24625 | 114.60453 | 37278 ft | 468 kts | 350° |
| 2026-04-30 14:03 | 20.27109 | 114.60241 | 37086 ft | 469 kts | 350° |
| 2026-04-30 14:03 | 20.30367 | 114.59963 | 36833 ft | 469 kts | 351° |
| 2026-04-30 14:03 | 20.33630 | 114.59688 | 36583 ft | 470 kts | 351° |
| 2026-04-30 14:03 | 20.36903 | 114.59414 | 36339 ft | 471 kts | 351° |
| 2026-04-30 14:04 | 20.40172 | 114.59139 | 36093 ft | 472 kts | 351° |
| 2026-04-30 14:04 | 20.43445 | 114.58863 | 35851 ft | 472 kts | 351° |
| 2026-04-30 14:04 | 20.46723 | 114.58584 | 35614 ft | 473 kts | 351° |
| 2026-04-30 14:04 | 20.50003 | 114.58299 | 35378 ft | 474 kts | 351° |
| 2026-04-30 14:05 | 20.53291 | 114.58010 | 35144 ft | 474 kts | 351° |
| 2026-04-30 14:05 | 20.56585 | 114.57727 | 34911 ft | 475 kts | 351° |
| 2026-04-30 14:05 | 20.59886 | 114.57443 | 34680 ft | 476 kts | 351° |
| 2026-04-30 14:05 | 20.63184 | 114.57155 | 34460 ft | 476 kts | 351° |
| 2026-04-30 14:06 | 20.66491 | 114.56866 | 34236 ft | 477 kts | 351° |
| 2026-04-30 14:06 | 20.73129 | 114.56294 | 33749 ft | 478 kts | 351° |
| 2026-04-30 14:07 | 20.79725 | 114.55725 | 33239 ft | 478 kts | 351° |
| 2026-04-30 14:07 | 20.83085 | 114.55431 | 32983 ft | 478 kts | 351° |
| 2026-04-30 14:07 | 20.86419 | 114.55294 | 32731 ft | 482 kts | 356° |
| 2026-04-30 14:08 | 20.93085 | 114.55352 | 32253 ft | 482 kts | 356° |
| 2026-04-30 14:08 | 20.96449 | 114.55391 | 32009 ft | 483 kts | 356° |
| 2026-04-30 14:08 | 21.03165 | 114.55465 | 30964 ft | 483 kts | 356° |
| 2026-04-30 14:09 | 21.06542 | 114.55492 | 29712 ft | 483 kts | 356° |
| 2026-04-30 14:09 | 21.09867 | 114.55525 | 28390 ft | 471 kts | 356° |
| 2026-04-30 14:09 | 21.16313 | 114.55593 | 25992 ft | 463 kts | 356° |
| 2026-04-30 14:10 | 21.19554 | 114.55623 | 24858 ft | 468 kts | 357° |
| 2026-04-30 14:10 | 21.22818 | 114.55650 | 23780 ft | 468 kts | 357° |
| 2026-04-30 14:10 | 21.26120 | 114.55674 | 22731 ft | 480 kts | 357° |
| 2026-04-30 14:10 | 21.29447 | 114.55698 | 21337 ft | 474 kts | 357° |
| 2026-04-30 14:11 | 21.32711 | 114.55735 | 19622 ft | 462 kts | 357° |
| 2026-04-30 14:11 | 21.35867 | 114.55782 | 18164 ft | 446 kts | 357° |
| 2026-04-30 14:11 | 21.38921 | 114.55820 | 16458 ft | 433 kts | 357° |
| 2026-04-30 14:11 | 21.41860 | 114.55850 | 14869 ft | 424 kts | 357° |
| 2026-04-30 14:12 | 21.44782 | 114.55874 | 13330 ft | 415 kts | 358° |
| 2026-04-30 14:12 | 21.47624 | 114.55799 | 12197 ft | 395 kts | 351° |
| 2026-04-30 14:12 | 21.50205 | 114.55310 | 11707 ft | 360 kts | 342° |
| 2026-04-30 14:12 | 21.52504 | 114.54560 | 11185 ft | 335 kts | 339° |
| 2026-04-30 14:13 | 21.54695 | 114.53810 | 10377 ft | 326 kts | 339° |
| 2026-04-30 14:13 | 21.56824 | 114.53074 | 9784 ft | 313 kts | 339° |
| 2026-04-30 14:13 | 21.58820 | 114.52384 | 9475 ft | 292 kts | 338° |
| 2026-04-30 14:13 | 21.60641 | 114.51530 | 8857 ft | 281 kts | 327° |
| 2026-04-30 14:14 | 21.62234 | 114.50350 | 8206 ft | 276 kts | 317° |
| 2026-04-30 14:14 | 21.63590 | 114.48915 | 7550 ft | 271 kts | 310° |
| 2026-04-30 14:14 | 21.64864 | 114.47426 | 6888 ft | 270 kts | 310° |
| 2026-04-30 14:14 | 21.66140 | 114.45949 | 6230 ft | 268 kts | 311° |
| 2026-04-30 14:15 | 21.67410 | 114.44486 | 5539 ft | 267 kts | 312° |
| 2026-04-30 14:15 | 21.68673 | 114.43031 | 5151 ft | 266 kts | 313° |
| 2026-04-30 14:15 | 21.69945 | 114.41565 | 5050 ft | 269 kts | 313° |
| 2026-04-30 14:15 | 21.71223 | 114.40087 | 5054 ft | 270 kts | 313° |
| 2026-04-30 14:16 | 21.72506 | 114.38605 | 5060 ft | 270 kts | 313° |
| 2026-04-30 14:16 | 21.73768 | 114.37138 | 5056 ft | 266 kts | 310° |
| 2026-04-30 14:16 | 21.74859 | 114.35536 | 5057 ft | 266 kts | 304° |
| 2026-04-30 14:16 | 21.75898 | 114.33893 | 5055 ft | 266 kts | 304° |
| 2026-04-30 14:17 | 21.76928 | 114.32236 | 5056 ft | 267 kts | 303° |
| 2026-04-30 14:17 | 21.77959 | 114.30565 | 5058 ft | 268 kts | 303° |
| 2026-04-30 14:17 | 21.78987 | 114.28894 | 5056 ft | 268 kts | 303° |
| 2026-04-30 14:17 | 21.80000 | 114.27250 | 5057 ft | 266 kts | 303° |
| 2026-04-30 14:18 | 21.81022 | 114.25595 | 5056 ft | 265 kts | 303° |
| 2026-04-30 14:18 | 21.82044 | 114.23946 | 5059 ft | 265 kts | 303° |
| 2026-04-30 14:18 | 21.84099 | 114.20639 | 5060 ft | 266 kts | 303° |
| 2026-04-30 14:19 | 21.86163 | 114.17310 | 5058 ft | 268 kts | 303° |
| 2026-04-30 14:19 | 21.87199 | 114.15642 | 5058 ft | 268 kts | 303° |
| 2026-04-30 14:19 | 21.88233 | 114.13977 | 5061 ft | 267 kts | 303° |
| 2026-04-30 14:20 | 21.89266 | 114.12312 | 5063 ft | 267 kts | 303° |
| 2026-04-30 14:20 | 21.90298 | 114.10648 | 5064 ft | 268 kts | 304° |
| 2026-04-30 14:20 | 21.92376 | 114.07296 | 5063 ft | 268 kts | 304° |
| 2026-04-30 14:21 | 21.93412 | 114.05626 | 5064 ft | 268 kts | 304° |
| 2026-04-30 14:21 | 21.94435 | 114.03974 | 5066 ft | 268 kts | 304° |
| 2026-04-30 14:21 | 21.96504 | 114.00625 | 5062 ft | 267 kts | 304° |
| 2026-04-30 14:22 | 21.97531 | 113.98960 | 5058 ft | 267 kts | 304° |
| 2026-04-30 14:22 | 21.99588 | 113.95621 | 5059 ft | 268 kts | 304° |
| 2026-04-30 14:22 | 22.00621 | 113.93945 | 5059 ft | 267 kts | 304° |
| 2026-04-30 14:23 | 22.02680 | 113.90610 | 5060 ft | 268 kts | 304° |
| 2026-04-30 14:23 | 22.04700 | 113.87344 | 5051 ft | 249 kts | 304° |
| 2026-04-30 14:24 | 22.06482 | 113.84452 | 5048 ft | 214 kts | 304° |
| 2026-04-30 14:24 | 22.07273 | 113.83163 | 5051 ft | 198 kts | 304° |
| 2026-04-30 14:25 | 22.08709 | 113.80826 | 5049 ft | 182 kts | 304° |
| 2026-04-30 14:25 | 22.10098 | 113.78578 | 5058 ft | 181 kts | 306° |
| 2026-04-30 14:26 | 22.12048 | 113.76904 | 5054 ft | 178 kts | 336° |
| 2026-04-30 14:26 | 22.13175 | 113.76352 | 5055 ft | 178 kts | 335° |
| 2026-04-30 14:26 | 22.15356 | 113.75268 | 4881 ft | 175 kts | 335° |
| 2026-04-30 14:27 | 22.16455 | 113.74721 | 4602 ft | 173 kts | 336° |
| 2026-04-30 14:27 | 22.17550 | 113.74175 | 4331 ft | 174 kts | 336° |
| 2026-04-30 14:27 | 22.18649 | 113.73633 | 4065 ft | 173 kts | 340° |
| 2026-04-30 14:28 | 22.20961 | 113.73690 | 3533 ft | 170 kts | 26° |
| 2026-04-30 14:28 | 22.22002 | 113.74288 | 3277 ft | 169 kts | 29° |
| 2026-04-30 14:28 | 22.23022 | 113.74875 | 3012 ft | 160 kts | 29° |
| 2026-04-30 14:28 | 22.23961 | 113.75410 | 2777 ft | 146 kts | 30° |
| 2026-04-30 14:29 | 22.25302 | 113.76753 | 2609 ft | 131 kts | 70° |
| 2026-04-30 14:29 | 22.25842 | 113.78233 | 2271 ft | 126 kts | 70° |
| 2026-04-30 14:30 | 22.26829 | 113.81172 | 1695 ft | 125 kts | 71° |
| 2026-04-30 14:31 | 22.27405 | 113.82941 | 1377 ft | 125 kts | 71° |
| 2026-04-30 14:31 | 22.27976 | 113.84704 | 1052 ft | 125 kts | 70° |
| 2026-04-30 14:31 | 22.28262 | 113.85590 | 889 ft | 126 kts | 71° |
| 2026-04-30 14:32 | 22.28838 | 113.87373 | 576 ft | 125 kts | 70° |
| 2026-04-30 14:32 | 22.29121 | 113.88254 | 387 ft | 124 kts | 69° |
| 2026-04-30 14:32 | 22.29411 | 113.89134 | 242 ft | 124 kts | 70° |
| 2026-04-30 14:33 | 22.29692 | 113.90005 | 63 ft | 122 kts | 71° |
| 2026-04-30 14:33 | 22.30117 | 113.91333 | 38 ft | 56 kts | 70° |
| 2026-04-30 14:33 | 22.30210 | 113.91541 | 38 ft | 6 kts | 353° |
| 2026-04-30 14:34 | 22.30252 | 113.91511 | 37 ft | 16 kts | 334° |
| 2026-04-30 14:34 | 22.30358 | 113.91473 | 37 ft | 15 kts | 340° |
| 2026-04-30 14:34 | 22.30416 | 113.91394 | 37 ft | 17 kts | 254° |
| 2026-04-30 14:34 | 22.30423 | 113.91309 | 37 ft | 1 kts | 346° |
| 2026-04-30 14:35 | 22.30493 | 113.91282 | 37 ft | 11 kts | 341° |
| 2026-04-30 14:35 | 22.30564 | 113.91243 | 37 ft | 5 kts | 287° |
| 2026-04-30 14:35 | 22.30551 | 113.91199 | 36 ft | 8 kts | 243° |
| 2026-04-30 14:36 | 22.30538 | 113.91162 | 37 ft | 3 kts | 250° |
| 2026-04-30 14:36 | 22.30535 | 113.91151 | 37 ft | 0 kts | 251° |
| 2026-04-30 14:37 | 22.30535 | 113.91152 | 37 ft | 1 kts | 250° |
| 2026-04-30 14:37 | 22.30535 | 113.91151 | 37 ft | 0 kts | 250° |